sensor_id;sensor_type;location;lat;lon;timestamp;P1;durP1;ratioP1;P2;durP2;ratioP2
33553;SDS011;19885;42.208;24.952;2023-03-23T00:01:57;20.20;;;9.83;;
33553;SDS011;19885;42.208;24.952;2023-03-23T00:04:25;17.37;;;10.40;;
33553;SDS011;19885;42.208;24.952;2023-03-23T00:06:54;17.10;;;8.33;;
33553;SDS011;19885;42.208;24.952;2023-03-23T00:09:19;14.23;;;8.63;;
33553;SDS011;19885;42.208;24.952;2023-03-23T00:11:51;18.93;;;9.87;;
33553;SDS011;19885;42.208;24.952;2023-03-23T00:14:17;19.80;;;10.00;;
33553;SDS011;19885;42.208;24.952;2023-03-23T00:16:47;15.10;;;9.50;;
33553;SDS011;19885;42.208;24.952;2023-03-23T00:19:14;16.70;;;9.23;;
33553;SDS011;19885;42.208;24.952;2023-03-23T00:21:40;17.83;;;9.70;;
33553;SDS011;19885;42.208;24.952;2023-03-23T00:24:11;15.17;;;9.50;;
33553;SDS011;19885;42.208;24.952;2023-03-23T00:26:41;17.40;;;10.27;;
33553;SDS011;19885;42.208;24.952;2023-03-23T00:29:18;19.50;;;9.93;;
33553;SDS011;19885;42.208;24.952;2023-03-23T00:31:47;18.90;;;9.43;;
33553;SDS011;19885;42.208;24.952;2023-03-23T00:34:17;16.73;;;9.67;;
33553;SDS011;19885;42.208;24.952;2023-03-23T00:36:49;14.93;;;9.97;;
33553;SDS011;19885;42.208;24.952;2023-03-23T00:39:21;14.30;;;9.67;;
33553;SDS011;19885;42.208;24.952;2023-03-23T00:41:49;26.03;;;10.27;;
33553;SDS011;19885;42.208;24.952;2023-03-23T00:44:15;21.97;;;9.83;;
33553;SDS011;19885;42.208;24.952;2023-03-23T00:46:47;15.70;;;10.10;;
33553;SDS011;19885;42.208;24.952;2023-03-23T00:49:15;19.27;;;10.07;;
33553;SDS011;19885;42.208;24.952;2023-03-23T00:51:46;15.87;;;10.13;;
33553;SDS011;19885;42.208;24.952;2023-03-23T00:54:11;14.10;;;9.33;;
33553;SDS011;19885;42.208;24.952;2023-03-23T00:56:37;16.00;;;9.33;;
33553;SDS011;19885;42.208;24.952;2023-03-23T00:59:06;15.27;;;10.07;;
33553;SDS011;19885;42.208;24.952;2023-03-23T01:01:32;14.37;;;9.33;;
33553;SDS011;19885;42.208;24.952;2023-03-23T01:03:59;16.60;;;9.37;;
33553;SDS011;19885;42.208;24.952;2023-03-23T01:06:29;20.40;;;11.40;;
33553;SDS011;19885;42.208;24.952;2023-03-23T01:08:57;20.47;;;11.07;;
33553;SDS011;19885;42.208;24.952;2023-03-23T01:11:24;23.07;;;12.37;;
33553;SDS011;19885;42.208;24.952;2023-03-23T01:13:50;19.17;;;12.37;;
33553;SDS011;19885;42.208;24.952;2023-03-23T01:16:16;19.20;;;11.23;;
33553;SDS011;19885;42.208;24.952;2023-03-23T01:18:42;19.43;;;11.93;;
33553;SDS011;19885;42.208;24.952;2023-03-23T01:21:08;19.37;;;11.40;;
33553;SDS011;19885;42.208;24.952;2023-03-23T01:23:39;20.37;;;12.10;;
33553;SDS011;19885;42.208;24.952;2023-03-23T01:26:12;17.57;;;10.13;;
33553;SDS011;19885;42.208;24.952;2023-03-23T01:28:45;18.00;;;11.13;;
33553;SDS011;19885;42.208;24.952;2023-03-23T01:31:12;19.80;;;11.77;;
33553;SDS011;19885;42.208;24.952;2023-03-23T01:33:40;16.73;;;10.57;;
33553;SDS011;19885;42.208;24.952;2023-03-23T01:36:08;21.93;;;10.40;;
33553;SDS011;19885;42.208;24.952;2023-03-23T01:38:39;19.97;;;10.57;;
33553;SDS011;19885;42.208;24.952;2023-03-23T01:41:06;13.80;;;10.07;;
33553;SDS011;19885;42.208;24.952;2023-03-23T01:43:32;15.17;;;10.07;;
33553;SDS011;19885;42.208;24.952;2023-03-23T01:46:00;16.87;;;10.20;;
33553;SDS011;19885;42.208;24.952;2023-03-23T01:48:29;17.43;;;10.30;;
33553;SDS011;19885;42.208;24.952;2023-03-23T01:51:03;16.23;;;10.00;;
33553;SDS011;19885;42.208;24.952;2023-03-23T01:53:34;17.90;;;11.37;;
33553;SDS011;19885;42.208;24.952;2023-03-23T01:56:03;19.67;;;10.37;;
33553;SDS011;19885;42.208;24.952;2023-03-23T01:58:34;19.37;;;10.43;;
33553;SDS011;19885;42.208;24.952;2023-03-23T02:01:02;16.57;;;9.97;;
33553;SDS011;19885;42.208;24.952;2023-03-23T02:03:31;22.03;;;10.93;;
33553;SDS011;19885;42.208;24.952;2023-03-23T02:05:57;18.93;;;11.20;;
33553;SDS011;19885;42.208;24.952;2023-03-23T02:08:28;13.80;;;9.13;;
33553;SDS011;19885;42.208;24.952;2023-03-23T02:10:57;15.03;;;10.00;;
33553;SDS011;19885;42.208;24.952;2023-03-23T02:13:23;16.07;;;9.73;;
33553;SDS011;19885;42.208;24.952;2023-03-23T02:15:56;15.87;;;10.13;;
33553;SDS011;19885;42.208;24.952;2023-03-23T02:27:44;15.07;;;8.97;;
33553;SDS011;19885;42.208;24.952;2023-03-23T02:32:23;14.50;;;9.93;;
33553;SDS011;19885;42.208;24.952;2023-03-23T02:35:24;13.53;;;8.43;;
33553;SDS011;19885;42.208;24.952;2023-03-23T02:37:57;12.43;;;8.70;;
33553;SDS011;19885;42.208;24.952;2023-03-23T02:40:33;12.87;;;7.63;;
33553;SDS011;19885;42.208;24.952;2023-03-23T02:43:06;15.27;;;8.80;;
33553;SDS011;19885;42.208;24.952;2023-03-23T02:45:36;12.57;;;8.83;;
33553;SDS011;19885;42.208;24.952;2023-03-23T02:48:08;12.67;;;8.23;;
33553;SDS011;19885;42.208;24.952;2023-03-23T02:50:36;15.00;;;8.73;;
33553;SDS011;19885;42.208;24.952;2023-03-23T02:53:04;18.13;;;9.27;;
33553;SDS011;19885;42.208;24.952;2023-03-23T02:55:38;13.33;;;8.00;;
33553;SDS011;19885;42.208;24.952;2023-03-23T02:58:10;14.57;;;9.17;;
33553;SDS011;19885;42.208;24.952;2023-03-23T03:00:37;14.17;;;9.03;;
33553;SDS011;19885;42.208;24.952;2023-03-23T03:03:09;13.93;;;9.13;;
33553;SDS011;19885;42.208;24.952;2023-03-23T03:09:19;17.67;;;10.10;;
33553;SDS011;19885;42.208;24.952;2023-03-23T03:11:23;17.13;;;10.13;;
33553;SDS011;19885;42.208;24.952;2023-03-23T03:16:29;16.70;;;10.93;;
33553;SDS011;19885;42.208;24.952;2023-03-23T03:19:03;14.73;;;9.57;;
33553;SDS011;19885;42.208;24.952;2023-03-23T03:21:43;16.13;;;9.00;;
33553;SDS011;19885;42.208;24.952;2023-03-23T03:24:12;15.87;;;9.57;;
33553;SDS011;19885;42.208;24.952;2023-03-23T03:26:43;11.87;;;9.00;;
33553;SDS011;19885;42.208;24.952;2023-03-23T03:29:16;12.63;;;8.10;;
33553;SDS011;19885;42.208;24.952;2023-03-23T03:31:48;14.40;;;8.50;;
33553;SDS011;19885;42.208;24.952;2023-03-23T03:34:19;11.43;;;7.37;;
33553;SDS011;19885;42.208;24.952;2023-03-23T03:36:45;12.87;;;8.90;;
33553;SDS011;19885;42.208;24.952;2023-03-23T03:39:12;14.30;;;8.30;;
33553;SDS011;19885;42.208;24.952;2023-03-23T03:41:41;17.57;;;8.63;;
33553;SDS011;19885;42.208;24.952;2023-03-23T03:44:07;14.23;;;9.17;;
33553;SDS011;19885;42.208;24.952;2023-03-23T03:46:34;12.40;;;8.30;;
33553;SDS011;19885;42.208;24.952;2023-03-23T03:49:00;18.67;;;7.73;;
33553;SDS011;19885;42.208;24.952;2023-03-23T03:51:28;14.33;;;8.87;;
33553;SDS011;19885;42.208;24.952;2023-03-23T03:53:54;16.50;;;10.17;;
33553;SDS011;19885;42.208;24.952;2023-03-23T03:56:21;13.50;;;8.67;;
33553;SDS011;19885;42.208;24.952;2023-03-23T03:58:51;23.93;;;10.60;;
33553;SDS011;19885;42.208;24.952;2023-03-23T04:01:18;16.43;;;9.93;;
33553;SDS011;19885;42.208;24.952;2023-03-23T04:03:47;15.30;;;9.40;;
33553;SDS011;19885;42.208;24.952;2023-03-23T04:06:16;14.83;;;9.47;;
33553;SDS011;19885;42.208;24.952;2023-03-23T04:08:43;18.00;;;9.93;;
33553;SDS011;19885;42.208;24.952;2023-03-23T04:11:10;15.50;;;8.57;;
33553;SDS011;19885;42.208;24.952;2023-03-23T04:13:40;17.60;;;10.23;;
33553;SDS011;19885;42.208;24.952;2023-03-23T04:16:06;14.67;;;10.20;;
33553;SDS011;19885;42.208;24.952;2023-03-23T04:18:32;16.33;;;11.03;;
33553;SDS011;19885;42.208;24.952;2023-03-23T04:20:59;19.03;;;10.83;;
33553;SDS011;19885;42.208;24.952;2023-03-23T04:23:26;19.93;;;11.77;;
33553;SDS011;19885;42.208;24.952;2023-03-23T04:25:55;22.33;;;10.17;;
33553;SDS011;19885;42.208;24.952;2023-03-23T04:28:23;23.63;;;10.63;;
33553;SDS011;19885;42.208;24.952;2023-03-23T04:30:50;20.10;;;12.07;;
33553;SDS011;19885;42.208;24.952;2023-03-23T04:33:21;18.77;;;10.40;;
33553;SDS011;19885;42.208;24.952;2023-03-23T04:35:51;21.53;;;10.67;;
33553;SDS011;19885;42.208;24.952;2023-03-23T04:38:18;21.93;;;12.23;;
33553;SDS011;19885;42.208;24.952;2023-03-23T04:40:49;19.43;;;11.70;;
33553;SDS011;19885;42.208;24.952;2023-03-23T04:43:20;18.57;;;10.93;;
33553;SDS011;19885;42.208;24.952;2023-03-23T04:45:56;21.57;;;12.40;;
33553;SDS011;19885;42.208;24.952;2023-03-23T04:48:27;17.47;;;12.13;;
33553;SDS011;19885;42.208;24.952;2023-03-23T04:50:55;19.90;;;11.57;;
33553;SDS011;19885;42.208;24.952;2023-03-23T04:53:24;20.13;;;12.50;;
33553;SDS011;19885;42.208;24.952;2023-03-23T04:55:52;20.17;;;10.73;;
33553;SDS011;19885;42.208;24.952;2023-03-23T04:58:19;21.40;;;10.87;;
33553;SDS011;19885;42.208;24.952;2023-03-23T05:00:45;15.87;;;10.00;;
33553;SDS011;19885;42.208;24.952;2023-03-23T05:03:15;15.07;;;9.13;;
33553;SDS011;19885;42.208;24.952;2023-03-23T05:05:46;13.73;;;9.80;;
33553;SDS011;19885;42.208;24.952;2023-03-23T05:08:20;22.63;;;9.80;;
33553;SDS011;19885;42.208;24.952;2023-03-23T05:10:53;20.43;;;9.90;;
33553;SDS011;19885;42.208;24.952;2023-03-23T05:13:21;17.97;;;10.97;;
33553;SDS011;19885;42.208;24.952;2023-03-23T05:15:47;15.90;;;10.33;;
33553;SDS011;19885;42.208;24.952;2023-03-23T05:18:13;15.80;;;9.13;;
33553;SDS011;19885;42.208;24.952;2023-03-23T05:20:40;16.80;;;10.30;;
33553;SDS011;19885;42.208;24.952;2023-03-23T05:23:07;17.93;;;9.93;;
33553;SDS011;19885;42.208;24.952;2023-03-23T05:25:34;16.20;;;11.20;;
33553;SDS011;19885;42.208;24.952;2023-03-23T05:28:04;17.50;;;10.00;;
33553;SDS011;19885;42.208;24.952;2023-03-23T05:30:31;15.57;;;10.63;;
33553;SDS011;19885;42.208;24.952;2023-03-23T05:32:56;19.27;;;11.07;;
33553;SDS011;19885;42.208;24.952;2023-03-23T05:35:21;18.63;;;11.17;;
33553;SDS011;19885;42.208;24.952;2023-03-23T05:37:47;20.27;;;12.43;;
33553;SDS011;19885;42.208;24.952;2023-03-23T05:40:13;16.33;;;10.20;;
33553;SDS011;19885;42.208;24.952;2023-03-23T05:42:39;15.20;;;10.47;;
33553;SDS011;19885;42.208;24.952;2023-03-23T05:45:10;18.17;;;11.70;;
33553;SDS011;19885;42.208;24.952;2023-03-23T05:47:37;21.73;;;13.87;;
33553;SDS011;19885;42.208;24.952;2023-03-23T05:50:04;21.30;;;13.23;;
33553;SDS011;19885;42.208;24.952;2023-03-23T05:52:31;26.00;;;14.03;;
33553;SDS011;19885;42.208;24.952;2023-03-23T05:55:00;23.37;;;13.47;;
33553;SDS011;19885;42.208;24.952;2023-03-23T05:57:28;19.27;;;11.63;;
33553;SDS011;19885;42.208;24.952;2023-03-23T05:59:54;20.63;;;12.63;;
33553;SDS011;19885;42.208;24.952;2023-03-23T06:02:20;25.03;;;16.37;;
33553;SDS011;19885;42.208;24.952;2023-03-23T06:04:48;27.97;;;14.33;;
33553;SDS011;19885;42.208;24.952;2023-03-23T06:07:14;23.73;;;14.60;;
33553;SDS011;19885;42.208;24.952;2023-03-23T06:09:40;23.93;;;14.23;;
33553;SDS011;19885;42.208;24.952;2023-03-23T06:12:07;23.67;;;14.77;;
33553;SDS011;19885;42.208;24.952;2023-03-23T06:14:34;37.20;;;23.23;;
33553;SDS011;19885;42.208;24.952;2023-03-23T06:17:01;28.20;;;16.13;;
33553;SDS011;19885;42.208;24.952;2023-03-23T06:19:27;22.77;;;13.53;;
33553;SDS011;19885;42.208;24.952;2023-03-23T06:21:56;24.73;;;14.17;;
33553;SDS011;19885;42.208;24.952;2023-03-23T06:24:22;29.50;;;16.17;;
33553;SDS011;19885;42.208;24.952;2023-03-23T06:26:48;27.00;;;15.27;;
33553;SDS011;19885;42.208;24.952;2023-03-23T06:29:15;23.07;;;15.00;;
33553;SDS011;19885;42.208;24.952;2023-03-23T06:31:46;22.33;;;13.30;;
33553;SDS011;19885;42.208;24.952;2023-03-23T06:34:14;29.40;;;15.90;;
33553;SDS011;19885;42.208;24.952;2023-03-23T06:36:40;24.53;;;14.53;;
33553;SDS011;19885;42.208;24.952;2023-03-23T06:39:05;27.37;;;15.37;;
33553;SDS011;19885;42.208;24.952;2023-03-23T06:41:31;25.83;;;16.00;;
33553;SDS011;19885;42.208;24.952;2023-03-23T06:43:58;24.83;;;15.33;;
33553;SDS011;19885;42.208;24.952;2023-03-23T06:46:25;29.90;;;17.60;;
33553;SDS011;19885;42.208;24.952;2023-03-23T06:48:51;27.37;;;16.23;;
33553;SDS011;19885;42.208;24.952;2023-03-23T06:51:17;24.33;;;16.20;;
33553;SDS011;19885;42.208;24.952;2023-03-23T06:53:43;32.10;;;17.37;;
33553;SDS011;19885;42.208;24.952;2023-03-23T06:56:09;28.57;;;16.90;;
33553;SDS011;19885;42.208;24.952;2023-03-23T06:58:36;29.17;;;17.13;;
33553;SDS011;19885;42.208;24.952;2023-03-23T07:01:02;34.37;;;18.50;;
33553;SDS011;19885;42.208;24.952;2023-03-23T07:03:29;30.17;;;17.97;;
33553;SDS011;19885;42.208;24.952;2023-03-23T07:05:56;35.93;;;19.07;;
33553;SDS011;19885;42.208;24.952;2023-03-23T07:08:22;26.47;;;15.57;;
33553;SDS011;19885;42.208;24.952;2023-03-23T07:10:50;25.40;;;14.63;;
33553;SDS011;19885;42.208;24.952;2023-03-23T07:13:19;45.30;;;15.33;;
33553;SDS011;19885;42.208;24.952;2023-03-23T07:15:45;25.73;;;13.90;;
33553;SDS011;19885;42.208;24.952;2023-03-23T07:18:11;28.70;;;17.23;;
33553;SDS011;19885;42.208;24.952;2023-03-23T07:20:39;30.87;;;17.50;;
33553;SDS011;19885;42.208;24.952;2023-03-23T07:23:05;28.37;;;16.97;;
33553;SDS011;19885;42.208;24.952;2023-03-23T07:25:31;36.50;;;18.23;;
33553;SDS011;19885;42.208;24.952;2023-03-23T07:27:58;31.87;;;17.17;;
33553;SDS011;19885;42.208;24.952;2023-03-23T07:30:27;32.20;;;18.60;;
33553;SDS011;19885;42.208;24.952;2023-03-23T07:32:54;30.83;;;16.67;;
33553;SDS011;19885;42.208;24.952;2023-03-23T07:35:21;32.50;;;15.63;;
33553;SDS011;19885;42.208;24.952;2023-03-23T07:37:47;31.73;;;16.90;;
33553;SDS011;19885;42.208;24.952;2023-03-23T07:40:14;25.80;;;14.43;;
33553;SDS011;19885;42.208;24.952;2023-03-23T07:42:43;23.57;;;14.93;;
33553;SDS011;19885;42.208;24.952;2023-03-23T07:45:11;32.60;;;15.37;;
33553;SDS011;19885;42.208;24.952;2023-03-23T07:47:38;27.13;;;15.03;;
33553;SDS011;19885;42.208;24.952;2023-03-23T07:50:10;25.27;;;14.03;;
33553;SDS011;19885;42.208;24.952;2023-03-23T07:52:37;24.47;;;13.23;;
33553;SDS011;19885;42.208;24.952;2023-03-23T07:55:04;20.63;;;12.90;;
33553;SDS011;19885;42.208;24.952;2023-03-23T07:57:31;19.60;;;11.43;;
33553;SDS011;19885;42.208;24.952;2023-03-23T08:00:00;24.73;;;13.33;;
33553;SDS011;19885;42.208;24.952;2023-03-23T08:02:28;25.00;;;15.00;;
33553;SDS011;19885;42.208;24.952;2023-03-23T08:04:56;23.53;;;15.43;;
33553;SDS011;19885;42.208;24.952;2023-03-23T08:07:25;23.83;;;14.27;;
33553;SDS011;19885;42.208;24.952;2023-03-23T08:09:57;23.00;;;15.50;;
33553;SDS011;19885;42.208;24.952;2023-03-23T08:12:23;18.87;;;12.57;;
33553;SDS011;19885;42.208;24.952;2023-03-23T08:14:48;19.60;;;10.23;;
33553;SDS011;19885;42.208;24.952;2023-03-23T08:17:14;13.53;;;9.37;;
33553;SDS011;19885;42.208;24.952;2023-03-23T08:19:40;16.27;;;9.83;;
33553;SDS011;19885;42.208;24.952;2023-03-23T08:22:05;16.53;;;10.27;;
33553;SDS011;19885;42.208;24.952;2023-03-23T08:24:31;17.60;;;10.63;;
33553;SDS011;19885;42.208;24.952;2023-03-23T08:26:58;22.10;;;11.60;;
33553;SDS011;19885;42.208;24.952;2023-03-23T08:29:25;11.70;;;8.90;;
33553;SDS011;19885;42.208;24.952;2023-03-23T08:31:51;13.63;;;8.47;;
33553;SDS011;19885;42.208;24.952;2023-03-23T08:34:17;18.40;;;11.30;;
33553;SDS011;19885;42.208;24.952;2023-03-23T08:36:42;19.07;;;11.77;;
33553;SDS011;19885;42.208;24.952;2023-03-23T08:39:12;23.10;;;13.37;;
33553;SDS011;19885;42.208;24.952;2023-03-23T08:41:40;14.57;;;9.07;;
33553;SDS011;19885;42.208;24.952;2023-03-23T08:44:06;18.13;;;11.23;;
33553;SDS011;19885;42.208;24.952;2023-03-23T08:46:34;15.00;;;9.30;;
33553;SDS011;19885;42.208;24.952;2023-03-23T08:49:00;13.57;;;8.47;;
33553;SDS011;19885;42.208;24.952;2023-03-23T08:51:26;20.50;;;11.17;;
33553;SDS011;19885;42.208;24.952;2023-03-23T08:53:51;17.87;;;12.30;;
33553;SDS011;19885;42.208;24.952;2023-03-23T08:56:17;20.80;;;10.90;;
33553;SDS011;19885;42.208;24.952;2023-03-23T08:58:43;18.80;;;11.57;;
33553;SDS011;19885;42.208;24.952;2023-03-23T09:01:08;20.57;;;11.37;;
33553;SDS011;19885;42.208;24.952;2023-03-23T09:03:36;16.10;;;11.20;;
33553;SDS011;19885;42.208;24.952;2023-03-23T09:06:04;21.50;;;11.27;;
33553;SDS011;19885;42.208;24.952;2023-03-23T09:08:31;16.80;;;11.43;;
33553;SDS011;19885;42.208;24.952;2023-03-23T09:11:03;15.10;;;10.30;;
33553;SDS011;19885;42.208;24.952;2023-03-23T09:13:34;16.93;;;11.33;;
33553;SDS011;19885;42.208;24.952;2023-03-23T09:16:01;15.80;;;10.70;;
33553;SDS011;19885;42.208;24.952;2023-03-23T09:18:29;20.07;;;9.87;;
33553;SDS011;19885;42.208;24.952;2023-03-23T09:20:57;16.77;;;10.60;;
33553;SDS011;19885;42.208;24.952;2023-03-23T09:23:26;18.57;;;10.87;;
33553;SDS011;19885;42.208;24.952;2023-03-23T09:25:52;14.10;;;9.80;;
33553;SDS011;19885;42.208;24.952;2023-03-23T09:28:18;22.53;;;11.17;;
33553;SDS011;19885;42.208;24.952;2023-03-23T09:30:45;16.20;;;10.63;;
33553;SDS011;19885;42.208;24.952;2023-03-23T09:33:12;20.40;;;11.13;;
33553;SDS011;19885;42.208;24.952;2023-03-23T09:35:40;15.87;;;10.90;;
33553;SDS011;19885;42.208;24.952;2023-03-23T09:38:08;16.60;;;9.53;;
33553;SDS011;19885;42.208;24.952;2023-03-23T09:43:55;13.73;;;9.67;;
33553;SDS011;19885;42.208;24.952;2023-03-23T09:51:55;10.17;;;7.87;;
33553;SDS011;19885;42.208;24.952;2023-03-23T09:54:43;12.17;;;8.27;;
33553;SDS011;19885;42.208;24.952;2023-03-23T09:57:15;13.00;;;7.60;;
33553;SDS011;19885;42.208;24.952;2023-03-23T10:02:34;10.43;;;6.47;;
33553;SDS011;19885;42.208;24.952;2023-03-23T10:05:25;5.33;;;4.50;;
33553;SDS011;19885;42.208;24.952;2023-03-23T10:07:56;11.23;;;6.17;;
33553;SDS011;19885;42.208;24.952;2023-03-23T10:10:23;8.67;;;5.73;;
33553;SDS011;19885;42.208;24.952;2023-03-23T10:13:14;8.43;;;5.37;;
33553;SDS011;19885;42.208;24.952;2023-03-23T10:15:45;8.00;;;5.33;;
33553;SDS011;19885;42.208;24.952;2023-03-23T10:18:26;10.77;;;5.67;;
33553;SDS011;19885;42.208;24.952;2023-03-23T10:21:07;7.03;;;5.67;;
33553;SDS011;19885;42.208;24.952;2023-03-23T10:29:08;6.23;;;4.83;;
33553;SDS011;19885;42.208;24.952;2023-03-23T10:31:45;6.27;;;4.63;;
33553;SDS011;19885;42.208;24.952;2023-03-23T10:34:22;10.70;;;4.40;;
33553;SDS011;19885;42.208;24.952;2023-03-23T10:36:59;5.70;;;4.57;;
33553;SDS011;19885;42.208;24.952;2023-03-23T10:39:37;6.93;;;4.93;;
33553;SDS011;19885;42.208;24.952;2023-03-23T10:42:08;9.37;;;4.10;;
33553;SDS011;19885;42.208;24.952;2023-03-23T10:44:34;6.17;;;4.30;;
33553;SDS011;19885;42.208;24.952;2023-03-23T10:47:07;5.90;;;4.70;;
33553;SDS011;19885;42.208;24.952;2023-03-23T10:52:35;7.03;;;4.37;;
33553;SDS011;19885;42.208;24.952;2023-03-23T10:57:34;6.33;;;4.53;;
33553;SDS011;19885;42.208;24.952;2023-03-23T11:02:35;8.50;;;5.47;;
33553;SDS011;19885;42.208;24.952;2023-03-23T11:05:31;6.40;;;3.97;;
33553;SDS011;19885;42.208;24.952;2023-03-23T11:08:00;7.67;;;5.67;;
33553;SDS011;19885;42.208;24.952;2023-03-23T11:10:27;5.00;;;4.07;;
33553;SDS011;19885;42.208;24.952;2023-03-23T11:13:10;7.17;;;4.30;;
33553;SDS011;19885;42.208;24.952;2023-03-23T11:15:39;6.70;;;4.60;;
33553;SDS011;19885;42.208;24.952;2023-03-23T11:18:11;6.23;;;4.10;;
33553;SDS011;19885;42.208;24.952;2023-03-23T11:20:44;7.90;;;4.53;;
33553;SDS011;19885;42.208;24.952;2023-03-23T11:23:24;7.23;;;4.53;;
33553;SDS011;19885;42.208;24.952;2023-03-23T11:28:29;7.37;;;3.77;;
33553;SDS011;19885;42.208;24.952;2023-03-23T11:31:00;5.93;;;3.30;;
33553;SDS011;19885;42.208;24.952;2023-03-23T11:33:37;5.77;;;2.77;;
33553;SDS011;19885;42.208;24.952;2023-03-23T11:36:14;4.97;;;2.33;;
33553;SDS011;19885;42.208;24.952;2023-03-23T11:38:42;4.87;;;3.23;;
33553;SDS011;19885;42.208;24.952;2023-03-23T11:41:10;2.17;;;1.67;;
33553;SDS011;19885;42.208;24.952;2023-03-23T11:43:41;2.43;;;2.00;;
33553;SDS011;19885;42.208;24.952;2023-03-23T11:48:58;3.17;;;2.13;;
33553;SDS011;19885;42.208;24.952;2023-03-23T11:54:17;2.87;;;1.80;;
33553;SDS011;19885;42.208;24.952;2023-03-23T11:56:45;3.20;;;2.27;;
33553;SDS011;19885;42.208;24.952;2023-03-23T11:59:16;4.50;;;2.00;;
33553;SDS011;19885;42.208;24.952;2023-03-23T12:16:28;2.10;;;1.80;;
33553;SDS011;19885;42.208;24.952;2023-03-23T12:19:16;2.47;;;2.10;;
33553;SDS011;19885;42.208;24.952;2023-03-23T12:21:55;2.80;;;2.50;;
33553;SDS011;19885;42.208;24.952;2023-03-23T12:32:54;3.77;;;2.53;;
33553;SDS011;19885;42.208;24.952;2023-03-23T12:35:29;3.97;;;2.80;;
33553;SDS011;19885;42.208;24.952;2023-03-23T12:49:03;4.40;;;3.30;;
33553;SDS011;19885;42.208;24.952;2023-03-23T12:54:21;3.60;;;3.00;;
33553;SDS011;19885;42.208;24.952;2023-03-23T12:57:07;5.10;;;3.43;;
33553;SDS011;19885;42.208;24.952;2023-03-23T12:59:47;8.53;;;3.37;;
33553;SDS011;19885;42.208;24.952;2023-03-23T13:02:32;6.17;;;3.07;;
33553;SDS011;19885;42.208;24.952;2023-03-23T13:07:54;5.70;;;4.20;;
33553;SDS011;19885;42.208;24.952;2023-03-23T13:10:37;4.10;;;3.37;;
33553;SDS011;19885;42.208;24.952;2023-03-23T13:13:11;4.20;;;3.20;;
33553;SDS011;19885;42.208;24.952;2023-03-23T13:21:17;5.03;;;3.40;;
33553;SDS011;19885;42.208;24.952;2023-03-23T13:23:54;114.93;;;83.75;;
33553;SDS011;19885;42.208;24.952;2023-03-23T13:26:23;39.20;;;32.33;;
33553;SDS011;19885;42.208;24.952;2023-03-23T13:31:21;6.53;;;3.27;;
33553;SDS011;19885;42.208;24.952;2023-03-23T13:33:57;4.40;;;3.23;;
33553;SDS011;19885;42.208;24.952;2023-03-23T13:36:35;5.10;;;2.57;;
33553;SDS011;19885;42.208;24.952;2023-03-23T13:39:04;4.77;;;3.23;;
33553;SDS011;19885;42.208;24.952;2023-03-23T13:42:03;8.53;;;3.73;;
33553;SDS011;19885;42.208;24.952;2023-03-23T13:49:55;5.83;;;3.90;;
33553;SDS011;19885;42.208;24.952;2023-03-23T14:05:59;3.63;;;2.77;;
33553;SDS011;19885;42.208;24.952;2023-03-23T14:10:55;6.30;;;3.90;;
33553;SDS011;19885;42.208;24.952;2023-03-23T14:16:19;6.40;;;4.27;;
33553;SDS011;19885;42.208;24.952;2023-03-23T14:18:49;5.37;;;3.87;;
33553;SDS011;19885;42.208;24.952;2023-03-23T14:21:22;7.20;;;4.23;;
33553;SDS011;19885;42.208;24.952;2023-03-23T14:24:12;5.37;;;4.27;;
33553;SDS011;19885;42.208;24.952;2023-03-23T14:26:41;6.07;;;3.83;;
33553;SDS011;19885;42.208;24.952;2023-03-23T14:29:09;5.10;;;3.60;;
33553;SDS011;19885;42.208;24.952;2023-03-23T14:31:36;5.67;;;3.70;;
33553;SDS011;19885;42.208;24.952;2023-03-23T14:34:03;6.03;;;3.87;;
33553;SDS011;19885;42.208;24.952;2023-03-23T14:36:36;4.53;;;3.63;;
33553;SDS011;19885;42.208;24.952;2023-03-23T14:39:07;5.27;;;3.40;;
33553;SDS011;19885;42.208;24.952;2023-03-23T14:41:46;8.13;;;4.23;;
33553;SDS011;19885;42.208;24.952;2023-03-23T14:44:16;4.13;;;3.23;;
33553;SDS011;19885;42.208;24.952;2023-03-23T14:46:46;5.53;;;4.23;;
33553;SDS011;19885;42.208;24.952;2023-03-23T14:49:14;5.50;;;4.27;;
33553;SDS011;19885;42.208;24.952;2023-03-23T14:51:49;8.03;;;4.63;;
33553;SDS011;19885;42.208;24.952;2023-03-23T14:54:27;6.27;;;4.60;;
33553;SDS011;19885;42.208;24.952;2023-03-23T14:56:54;7.43;;;4.87;;
33553;SDS011;19885;42.208;24.952;2023-03-23T14:59:20;6.93;;;5.17;;
33553;SDS011;19885;42.208;24.952;2023-03-23T15:01:47;6.50;;;4.97;;
33553;SDS011;19885;42.208;24.952;2023-03-23T15:04:19;6.80;;;5.00;;
33553;SDS011;19885;42.208;24.952;2023-03-23T15:06:58;10.23;;;5.03;;
33553;SDS011;19885;42.208;24.952;2023-03-23T15:09:28;10.80;;;5.70;;
33553;SDS011;19885;42.208;24.952;2023-03-23T15:11:58;8.93;;;5.90;;
33553;SDS011;19885;42.208;24.952;2023-03-23T15:14:28;6.17;;;4.27;;
33553;SDS011;19885;42.208;24.952;2023-03-23T15:16:57;7.50;;;4.80;;
33553;SDS011;19885;42.208;24.952;2023-03-23T15:19:25;6.37;;;4.90;;
33553;SDS011;19885;42.208;24.952;2023-03-23T15:22:07;7.67;;;4.53;;
33553;SDS011;19885;42.208;24.952;2023-03-23T15:24:49;8.27;;;5.20;;
33553;SDS011;19885;42.208;24.952;2023-03-23T15:27:31;7.83;;;5.33;;
33553;SDS011;19885;42.208;24.952;2023-03-23T15:29:59;6.70;;;4.27;;
33553;SDS011;19885;42.208;24.952;2023-03-23T15:32:38;6.43;;;4.60;;
33553;SDS011;19885;42.208;24.952;2023-03-23T15:35:12;11.53;;;6.13;;
33553;SDS011;19885;42.208;24.952;2023-03-23T15:37:44;8.60;;;5.60;;
33553;SDS011;19885;42.208;24.952;2023-03-23T15:40:33;8.03;;;5.70;;
33553;SDS011;19885;42.208;24.952;2023-03-23T15:43:08;6.80;;;4.57;;
33553;SDS011;19885;42.208;24.952;2023-03-23T15:45:50;7.50;;;5.17;;
33553;SDS011;19885;42.208;24.952;2023-03-23T15:48:20;11.43;;;5.53;;
33553;SDS011;19885;42.208;24.952;2023-03-23T15:50:46;6.73;;;4.90;;
33553;SDS011;19885;42.208;24.952;2023-03-23T15:53:26;12.03;;;5.10;;
33553;SDS011;19885;42.208;24.952;2023-03-23T15:55:53;7.70;;;5.17;;
33553;SDS011;19885;42.208;24.952;2023-03-23T15:58:20;8.93;;;6.30;;
33553;SDS011;19885;42.208;24.952;2023-03-23T16:00:45;8.20;;;5.80;;
33553;SDS011;19885;42.208;24.952;2023-03-23T16:03:15;8.33;;;5.07;;
33553;SDS011;19885;42.208;24.952;2023-03-23T16:05:45;10.03;;;6.33;;
33553;SDS011;19885;42.208;24.952;2023-03-23T16:08:11;7.40;;;6.17;;
33553;SDS011;19885;42.208;24.952;2023-03-23T16:10:36;7.17;;;6.00;;
33553;SDS011;19885;42.208;24.952;2023-03-23T16:13:02;11.03;;;6.63;;
33553;SDS011;19885;42.208;24.952;2023-03-23T16:15:29;11.43;;;6.57;;
33553;SDS011;19885;42.208;24.952;2023-03-23T16:17:55;17.77;;;6.50;;
33553;SDS011;19885;42.208;24.952;2023-03-23T16:20:21;17.60;;;7.07;;
33553;SDS011;19885;42.208;24.952;2023-03-23T16:22:49;10.97;;;7.27;;
33553;SDS011;19885;42.208;24.952;2023-03-23T16:25:16;13.50;;;7.97;;
33553;SDS011;19885;42.208;24.952;2023-03-23T16:27:43;11.03;;;7.70;;
33553;SDS011;19885;42.208;24.952;2023-03-23T16:30:17;11.10;;;7.80;;
33553;SDS011;19885;42.208;24.952;2023-03-23T16:32:51;9.93;;;7.87;;
33553;SDS011;19885;42.208;24.952;2023-03-23T16:35:17;12.13;;;7.60;;
33553;SDS011;19885;42.208;24.952;2023-03-23T16:37:48;10.27;;;7.33;;